Time;durP1;ratioP1;P1;durP2;ratioP2;P2;SDS_P1;SDS_P2;PMS_P1;PMS_P2;Temp;Humidity;BMP_temperature;BMP_pressure;BME280_temperature;BME280_humidity;BME280_pressure;Samples;Min_cycle;Max_cycle;Signal;HPM_P1;HPM_P2
2023/05/01 00:01:22;;;;;;;6.30;4.47;;;;;;;-146.27;95.82;83324.41;5029381;28;20033;-71
2023/05/01 00:03:48;;;;;;;8.68;4.38;;;;;;;-146.27;96.35;83290.25;5029821;28;20029;-71
2023/05/01 00:06:13;;;;;;;8.93;4.68;;;;;;;-146.27;97.54;83290.25;5029795;28;20025;-71
2023/05/01 00:08:38;;;;;;;6.35;4.57;;;;;;;-146.27;96.22;83336.47;5028196;28;20404;-71
2023/05/01 00:11:08;;;;;;;7.03;4.38;;;;;;;-146.27;97.60;83288.25;5025648;28;21183;-70
2023/05/01 00:13:33;;;;;;;7.72;4.60;;;;;;;-146.27;96.36;83302.31;5029446;28;20148;-70
2023/05/01 00:15:59;;;;;;;7.07;4.97;;;;;;;-146.27;96.68;83248.06;5027839;28;20466;-71
2023/05/01 00:18:24;;;;;;;8.40;4.22;;;;;;;-146.27;96.22;83312.34;5028046;28;20025;-71
2023/05/01 00:20:50;;;;;;;7.43;5.13;;;;;;;-146.27;96.76;83306.34;5029516;28;20037;-72
2023/05/01 00:23:15;;;;;;;6.30;4.43;;;;;;;-146.27;96.60;83322.41;5028406;28;20029;-71
2023/05/01 00:25:41;;;;;;;5.97;4.35;;;;;;;-146.27;98.49;83332.44;5028905;28;20400;-71
2023/05/01 00:28:06;;;;;;;8.00;5.38;;;;;;;-146.27;98.04;83336.47;5029847;28;20033;-70
2023/05/01 00:30:32;;;;;;;6.22;4.50;;;;;;;-146.27;98.04;83344.50;5027762;28;20037;-71
2023/05/01 00:32:58;;;;;;;13.50;5.32;;;;;;;-146.27;99.07;83340.50;5030234;28;20029;-71
2023/05/01 00:35:24;;;;;;;7.40;5.38;;;;;;;-146.27;97.79;83366.59;5029177;28;20035;-71
2023/05/01 00:37:49;;;;;;;7.70;4.80;;;;;;;-146.27;98.89;83368.63;5030010;28;20029;-71
2023/05/01 00:40:15;;;;;;;9.55;5.80;;;;;;;-146.27;98.92;83346.53;5029260;28;20603;-71
2023/05/01 00:42:40;;;;;;;8.73;5.82;;;;;;;-146.27;98.76;83392.72;5026428;28;20049;-71
2023/05/01 00:45:07;;;;;;;7.55;6.00;;;;;;;-146.27;99.69;83390.72;5026856;28;20116;-71
2023/05/01 00:47:34;;;;;;;9.75;5.40;;;;;;;-146.27;100.00;83374.66;5028097;28;20121;-71
2023/05/01 00:50:00;;;;;;;8.57;5.68;;;;;;;-146.27;99.86;83372.63;5029535;28;20477;-71
2023/05/01 00:52:25;;;;;;;8.32;5.78;;;;;;;-146.27;99.48;83376.66;5028917;28;20363;-71
2023/05/01 00:54:51;;;;;;;9.52;6.07;;;;;;;-146.27;100.00;83477.13;5029139;28;20084;-72
2023/05/01 00:57:20;;;;;;;12.23;5.95;;;;;;;-146.27;100.00;83396.75;5027426;28;20123;-71
2023/05/01 00:59:46;;;;;;;7.88;6.18;;;;;;;-146.27;100.00;83449.00;5018825;28;20475;-71
2023/05/01 01:02:12;;;;;;;6.63;5.20;;;;;;;-146.27;100.00;83408.81;5020307;28;20025;-71
2023/05/01 01:04:42;;;;;;;9.27;5.57;;;;;;;-146.27;100.00;83408.81;5020732;28;20480;-70
2023/05/01 01:07:39;;;;;;;6.35;5.18;;;;;;;-146.27;100.00;83412.81;5020566;28;20021;-71
2023/05/01 01:10:25;;;;;;;8.15;5.00;;;;;;;-146.27;100.00;83410.81;5027042;28;20037;-71
2023/05/01 01:13:07;;;;;;;9.80;5.47;;;;;;;-146.27;100.00;83410.81;5024111;28;20516;-71
2023/05/01 01:15:52;;;;;;;8.45;5.20;;;;;;;-146.27;100.00;83412.81;5027436;28;20265;-71
2023/05/01 01:18:31;;;;;;;6.30;4.97;;;;;;;-146.27;99.52;83420.88;5025281;28;20796;-71
2023/05/01 01:21:08;;;;;;;8.55;5.22;;;;;;;-146.27;99.53;83420.88;5028678;28;20025;-71
2023/05/01 01:23:36;;;;;;;9.98;5.22;;;;;;;-146.27;99.96;83475.13;5029961;28;20035;-71
2023/05/01 01:26:25;;;;;;;7.15;4.63;;;;;;;-146.27;100.00;83453.00;5029081;28;20071;-72
2023/05/01 01:29:35;;;;;;;6.88;4.60;;;;;;;-146.27;99.60;83457.03;5025908;28;20163;-71
2023/05/01 01:32:19;;;;;;;10.60;5.55;;;;;;;-146.27;100.00;83457.03;5019158;28;20613;-71
2023/05/01 01:34:54;;;;;;;6.75;4.80;;;;;;;-146.27;100.00;83459.03;5029881;28;20061;-71
2023/05/01 01:37:23;;;;;;;10.35;5.18;;;;;;;-146.27;100.00;83451.00;5027786;28;20414;-71
2023/05/01 01:39:56;;;;;;;6.95;4.50;;;;;;;-146.27;100.00;83424.88;5027372;28;20029;-71
2023/05/01 01:42:29;;;;;;;7.50;4.93;;;;;;;-146.27;98.25;83440.94;5029690;28;20037;-71
2023/05/01 01:44:57;;;;;;;6.90;4.28;;;;;;;-146.27;98.44;83451.00;5029002;28;20062;-71
2023/05/01 01:47:30;;;;;;;7.32;4.57;;;;;;;-146.27;98.27;83477.13;5028129;28;20388;-72
2023/05/01 01:49:58;;;;;;;8.82;5.00;;;;;;;-146.27;97.23;83485.16;5027781;28;20082;-72
2023/05/01 01:52:27;;;;;;;7.93;4.43;;;;;;;-146.27;96.79;83487.16;5028244;28;20410;-71
2023/05/01 01:55:05;;;;;;;5.57;4.22;;;;;;;-146.27;97.29;83469.09;5029250;28;20369;-72
2023/05/01 01:57:31;;;;;;;7.22;4.40;;;;;;;-146.27;96.02;83459.03;5028364;28;20099;-71
2023/05/01 01:59:57;;;;;;;8.07;4.55;;;;;;;-146.27;98.04;83483.16;5028720;28;20538;-71
2023/05/01 02:02:23;;;;;;;6.05;4.43;;;;;;;-146.27;97.72;83430.91;5027058;28;20055;-72
2023/05/01 02:04:51;;;;;;;10.60;4.43;;;;;;;-146.27;95.77;83422.88;5028743;28;20041;-72
2023/05/01 02:07:19;;;;;;;5.53;3.88;;;;;;;-146.27;94.72;83430.91;5025385;28;20100;-71
2023/05/01 02:09:45;;;;;;;10.98;4.07;;;;;;;-146.27;93.57;83408.81;5027726;28;20033;-71
2023/05/01 02:12:13;;;;;;;4.43;3.63;;;;;;;-146.27;92.96;83485.16;5028370;28;20577;-71
2023/05/01 02:14:41;;;;;;;9.13;4.40;;;;;;;-146.27;93.63;83412.81;5027669;28;20096;-71
2023/05/01 02:17:08;;;;;;;5.22;3.60;;;;;;;-146.27;94.91;83444.97;5027483;28;20052;-71
2023/05/01 02:19:35;;;;;;;4.88;3.75;;;;;;;-146.27;94.44;83414.84;5028769;28;20018;-71
2023/05/01 02:22:03;;;;;;;4.93;3.65;;;;;;;-146.27;95.42;83463.06;5030777;28;20029;-72
2023/05/01 02:24:30;;;;;;;7.32;4.00;;;;;;;-146.27;94.09;83440.94;5030983;28;20090;-70
2023/05/01 02:27:02;;;;;;;6.65;4.47;;;;;;;-146.27;95.55;83432.91;5030525;28;20037;-73
2023/05/01 02:29:28;;;;;;;7.47;4.00;;;;;;;-146.27;95.39;83485.16;5031702;28;20358;-70
2023/05/01 02:31:54;;;;;;;4.53;3.70;;;;;;;-146.27;95.96;83489.19;5031506;28;20033;-70
2023/05/01 02:34:19;;;;;;;6.20;4.13;;;;;;;-146.27;96.39;83471.09;5032539;28;20058;-72
2023/05/01 02:36:44;;;;;;;5.43;3.85;;;;;;;-146.27;96.29;83473.09;5031112;28;20090;-71
2023/05/01 02:39:10;;;;;;;8.23;4.28;;;;;;;-146.27;95.74;83491.19;5033680;28;20032;-72
2023/05/01 02:41:37;;;;;;;6.45;4.50;;;;;;;-146.27;95.47;83473.09;5032155;28;20306;-71
2023/05/01 02:44:06;;;;;;;5.68;3.90;;;;;;;-146.27;96.60;83477.13;5031748;28;20081;-70
2023/05/01 02:46:35;;;;;;;8.38;3.85;;;;;;;-146.27;95.53;83503.25;5029609;28;20358;-71
2023/05/01 02:49:02;;;;;;;6.53;4.80;;;;;;;-146.27;96.38;83497.22;5030325;28;20033;-72
2023/05/01 02:51:30;;;;;;;6.80;4.20;;;;;;;-146.27;96.44;83537.41;5030831;28;20119;-71
2023/05/01 02:53:56;;;;;;;5.63;3.80;;;;;;;-146.27;97.54;83501.22;5032554;28;20025;-71
2023/05/01 02:56:21;;;;;;;9.23;3.60;;;;;;;-146.27;96.87;83493.19;5030736;28;20028;-70
2023/05/01 02:58:48;;;;;;;5.93;4.18;;;;;;;-146.27;96.26;83455.03;5030559;28;20068;-71
2023/05/01 03:01:13;;;;;;;8.10;3.75;;;;;;;-146.27;94.13;83481.16;5030336;28;20029;-71
2023/05/01 03:03:39;;;;;;;6.15;4.00;;;;;;;-146.27;95.07;83459.03;5030549;28;20031;-72
2023/05/01 03:06:04;;;;;;;9.30;4.20;;;;;;;-146.27;96.38;83481.16;5030196;28;20114;-71
2023/05/01 03:08:29;;;;;;;6.80;4.18;;;;;;;-146.27;97.70;83442.97;5031598;28;20036;-70
2023/05/01 03:10:55;;;;;;;5.07;4.15;;;;;;;-146.27;97.27;83461.06;5027806;28;20045;-72
2023/05/01 03:13:21;;;;;;;7.20;5.80;;;;;;;-146.27;95.69;83497.22;5029394;28;20069;-71
2023/05/01 03:15:46;;;;;;;8.95;5.10;;;;;;;-146.27;97.44;83477.13;5030501;28;20480;-71
2023/05/01 03:18:11;;;;;;;6.35;3.90;;;;;;;-146.27;96.65;83449.00;5030666;28;20017;-71
2023/05/01 03:20:37;;;;;;;5.85;4.18;;;;;;;-146.27;96.12;83457.03;5029047;28;20436;-72
2023/05/01 03:23:02;;;;;;;9.25;4.00;;;;;;;-146.27;96.46;83525.34;5028668;28;20491;-71
2023/05/01 03:25:28;;;;;;;7.05;4.10;;;;;;;-146.27;95.58;83469.09;5029810;28;20116;-71
2023/05/01 03:27:53;;;;;;;6.15;3.72;;;;;;;-146.27;96.68;83503.25;5027686;28;20025;-71
2023/05/01 03:30:18;;;;;;;5.38;3.65;;;;;;;-146.27;96.97;83485.16;5031129;28;20033;-72
2023/05/01 03:32:43;;;;;;;7.03;4.18;;;;;;;-146.27;98.72;83509.28;5028643;28;20048;-71
2023/05/01 03:35:09;;;;;;;6.75;4.03;;;;;;;-146.27;98.58;83517.31;5030500;28;20494;-72
2023/05/01 03:37:35;;;;;;;10.40;4.43;;;;;;;-146.27;99.24;83515.31;5028845;28;20530;-72
2023/05/01 03:40:00;;;;;;;6.22;4.15;;;;;;;-146.27;99.59;83537.41;5030992;28;20483;-71
2023/05/01 03:42:26;;;;;;;8.20;4.63;;;;;;;-146.27;99.80;83509.28;5026975;28;20025;-71
2023/05/01 03:44:51;;;;;;;5.03;4.35;;;;;;;-146.27;99.46;83529.38;5028258;28;20096;-72
2023/05/01 03:47:18;;;;;;;7.10;4.82;;;;;;;-146.27;100.00;83553.47;5026977;28;20056;-71
2023/05/01 03:49:43;;;;;;;6.88;4.38;;;;;;;-146.27;99.49;83477.13;5028848;28;20030;-71
2023/05/01 03:52:10;;;;;;;7.85;5.07;;;;;;;-146.27;99.19;83495.22;5030386;28;20037;-71
2023/05/01 03:54:37;;;;;;;7.75;4.65;;;;;;;-146.27;98.16;83432.91;5029109;28;20518;-72
2023/05/01 03:57:02;;;;;;;6.30;4.28;;;;;;;-146.27;98.65;83529.38;5031409;28;20053;-71
2023/05/01 03:59:28;;;;;;;9.10;4.80;;;;;;;-146.27;98.83;83529.38;5028643;28;20036;-71
2023/05/01 04:01:53;;;;;;;7.60;4.72;;;;;;;-146.27;100.00;83513.28;5029345;28;20029;-71
2023/05/01 04:04:18;;;;;;;13.73;4.85;;;;;;;-146.27;99.59;83509.28;5030987;28;20416;-71
2023/05/01 04:06:44;;;;;;;6.85;4.35;;;;;;;-146.27;98.54;83501.22;5030755;28;20440;-71
2023/05/01 04:09:09;;;;;;;8.15;4.00;;;;;;;-146.27;98.50;83521.34;5031370;28;20067;-71
2023/05/01 04:11:35;;;;;;;7.90;4.45;;;;;;;-146.27;98.84;83525.34;5028294;28;20248;-71
2023/05/01 04:14:00;;;;;;;5.78;3.85;;;;;;;-146.27;98.17;83513.28;5029986;28;20029;-71
2023/05/01 04:16:26;;;;;;;7.15;4.45;;;;;;;-146.27;98.28;83519.31;5030634;28;20496;-71
2023/05/01 04:18:51;;;;;;;5.18;3.70;;;;;;;-146.27;97.86;83527.34;5030761;28;20104;-71
2023/05/01 04:21:17;;;;;;;6.95;3.67;;;;;;;-146.27;99.14;83521.34;5027941;28;20135;-71
2023/05/01 04:23:43;;;;;;;5.68;3.88;;;;;;;-146.27;100.00;83505.25;5028584;28;20029;-70
2023/05/01 04:26:08;;;;;;;5.72;3.58;;;;;;;-146.27;99.12;83499.22;5028499;28;20037;-71
2023/05/01 04:28:34;;;;;;;4.88;3.53;;;;;;;-146.27;98.49;83519.31;5028173;28;20017;-71
2023/05/01 04:31:00;;;;;;;5.18;3.53;;;;;;;-146.27;98.44;83521.34;5027922;28;20037;-70
2023/05/01 04:33:27;;;;;;;6.80;3.85;;;;;;;-146.27;97.36;83457.03;5028945;28;20025;-71
2023/05/01 04:35:52;;;;;;;14.20;4.05;;;;;;;-146.27;98.74;83497.22;5029687;28;20091;-71
2023/05/01 04:38:18;;;;;;;13.00;3.80;;;;;;;-146.27;96.42;83515.31;5029854;28;20145;-71
2023/05/01 04:40:44;;;;;;;7.72;3.80;;;;;;;-146.27;97.16;83503.25;5025174;28;20056;-71
2023/05/01 04:43:09;;;;;;;4.65;3.47;;;;;;;-146.27;97.88;83497.22;5028972;28;20025;-72
2023/05/01 04:45:34;;;;;;;12.23;4.55;;;;;;;-146.27;97.08;83465.06;5028298;28;20025;-71
2023/05/01 04:48:00;;;;;;;6.43;4.10;;;;;;;-146.27;97.57;83457.03;5026886;28;20037;-71
2023/05/01 04:50:25;;;;;;;4.38;3.05;;;;;;;-146.27;96.17;83455.03;5027620;28;20110;-71
2023/05/01 04:52:51;;;;;;;7.47;3.50;;;;;;;-146.27;96.67;83457.03;5028593;28;20033;-71
2023/05/01 04:55:17;;;;;;;5.28;3.90;;;;;;;-146.27;98.37;83479.13;5022054;28;20477;-72
2023/05/01 04:57:42;;;;;;;4.20;3.80;;;;;;;-146.27;95.63;83457.03;5029609;28;20083;-71
2023/05/01 05:00:08;;;;;;;7.53;3.70;;;;;;;-146.27;95.97;83493.19;5041832;28;20037;-71
2023/05/01 05:02:33;;;;;;;6.43;3.42;;;;;;;-146.27;94.54;83469.09;5022388;28;20087;-70
2023/05/01 05:04:59;;;;;;;5.03;3.50;;;;;;;-146.27;95.85;83463.06;5026647;28;20116;-71
2023/05/01 05:07:24;;;;;;;6.43;3.67;;;;;;;-146.27;94.36;83457.03;5027401;28;20369;-71
2023/05/01 05:09:50;;;;;;;5.28;3.85;;;;;;;-146.27;93.62;83473.09;5025349;28;20361;-71
2023/05/01 05:12:15;;;;;;;9.23;4.72;;;;;;;-146.27;94.72;83463.06;5026798;28;20041;-71
2023/05/01 05:14:42;;;;;;;6.30;3.53;;;;;;;-146.27;95.09;83455.03;5029507;28;20021;-71
2023/05/01 05:17:08;;;;;;;7.75;4.20;;;;;;;-146.27;94.76;83475.13;5010391;28;20065;-71
2023/05/01 05:19:33;;;;;;;6.90;4.10;;;;;;;-146.27;95.02;83440.94;5022267;28;20017;-71
2023/05/01 05:22:01;;;;;;;8.43;4.28;;;;;;;-146.27;94.75;83404.78;5028242;28;20030;-70
2023/05/01 05:24:27;;;;;;;8.00;4.32;;;;;;;-146.27;93.68;83378.66;5023606;28;20091;-70
2023/05/01 05:26:53;;;;;;;7.53;4.00;;;;;;;-146.27;93.87;83416.84;5028622;28;20055;-72
2023/05/01 05:29:19;;;;;;;7.43;3.28;;;;;;;-146.27;94.74;83418.84;5028719;28;20037;-71
2023/05/01 05:31:44;;;;;;;4.35;3.35;;;;;;;-146.27;93.36;83420.88;5027047;28;20056;-71
2023/05/01 05:34:10;;;;;;;7.20;3.97;;;;;;;-146.27;92.30;83438.94;5028487;28;20108;-71
2023/05/01 05:36:35;;;;;;;8.23;3.75;;;;;;;-146.27;93.12;83430.91;5028198;28;20112;-72
2023/05/01 05:39:01;;;;;;;5.85;3.97;;;;;;;-146.27;94.79;83354.56;5025491;28;20152;-72
2023/05/01 05:41:28;;;;;;;6.60;3.90;;;;;;;-146.27;93.33;83388.72;5019475;28;20021;-72
2023/05/01 05:43:53;;;;;;;9.32;4.05;;;;;;;-146.27;93.81;83350.53;5024569;28;20033;-71
2023/05/01 05:46:19;;;;;;;7.15;3.47;;;;;;;-146.27;93.20;83368.63;5024722;28;20025;-72
2023/05/01 05:48:45;;;;;;;6.53;3.65;;;;;;;-146.27;93.40;83416.84;5019942;28;20349;-72
2023/05/01 05:51:10;;;;;;;5.13;3.50;;;;;;;-146.27;93.72;83342.50;5019836;28;20041;-72
2023/05/01 05:53:36;;;;;;;10.85;3.72;;;;;;;-146.27;93.28;83408.81;5014925;28;20044;-71
2023/05/01 05:56:02;;;;;;;11.43;3.58;;;;;;;-146.27;92.77;83358.56;5027301;28;20109;-71
2023/05/01 05:58:27;;;;;;;7.65;3.35;;;;;;;-146.27;91.66;83332.44;5030597;28;20171;-71
2023/05/01 06:00:54;;;;;;;6.88;3.60;;;;;;;-146.27;91.61;83360.59;5026423;28;20059;-72
2023/05/01 06:03:20;;;;;;;7.88;3.35;;;;;;;-146.27;92.20;83316.38;5022626;28;20120;-72
2023/05/01 06:05:45;;;;;;;8.82;4.15;;;;;;;-146.27;91.18;83346.53;5026432;28;20710;-72
2023/05/01 06:08:10;;;;;;;8.30;3.70;;;;;;;-146.27;93.18;83284.22;5029243;28;20441;-72
2023/05/01 06:10:38;;;;;;;6.15;3.25;;;;;;;-146.27;93.17;83332.44;5026026;28;20476;-71
2023/05/01 06:13:04;;;;;;;6.90;3.95;;;;;;;-146.27;91.66;83298.28;5021282;28;20052;-71
2023/05/01 06:15:29;;;;;;;9.65;3.47;;;;;;;-146.27;93.22;83310.34;5028656;28;20492;-72
2023/05/01 06:17:55;;;;;;;14.02;4.20;;;;;;;-146.27;91.74;83232.00;5025236;28;20021;-73
2023/05/01 06:20:21;;;;;;;5.30;3.55;;;;;;;-146.27;91.90;83286.25;5026077;28;20438;-71
2023/05/01 06:22:46;;;;;;;8.80;3.95;;;;;;;-146.27;92.12;83290.25;5030306;28;20040;-71
2023/05/01 06:25:12;;;;;;;7.35;4.00;;;;;;;-146.27;93.71;83276.19;5031110;28;20463;-71
2023/05/01 06:27:37;;;;;;;6.63;3.97;;;;;;;-146.27;92.29;83278.19;5029721;28;20040;-72
2023/05/01 06:30:04;;;;;;;4.65;3.58;;;;;;;-146.27;92.44;83240.03;5022011;28;20068;-70
2023/05/01 06:32:29;;;;;;;10.70;3.75;;;;;;;-146.27;91.83;83280.22;5025796;28;20583;-71
2023/05/01 06:34:55;;;;;;;10.20;3.65;;;;;;;-146.27;90.77;83244.03;5031427;28;20104;-72
2023/05/01 06:37:20;;;;;;;9.80;3.85;;;;;;;-146.27;89.92;83276.19;5032044;28;20064;-72
2023/05/01 06:39:46;;;;;;;8.75;3.90;;;;;;;-146.27;88.91;83260.13;5030740;28;20056;-74
2023/05/01 06:42:14;;;;;;;7.95;4.03;;;;;;;-146.27;88.04;83260.13;5031275;28;20029;-71
2023/05/01 06:44:40;;;;;;;11.23;4.15;;;;;;;-146.27;88.23;83236.00;5027191;28;20014;-72
2023/05/01 06:47:06;;;;;;;6.85;3.67;;;;;;;-146.27;88.60;83223.94;5030365;28;20032;-69
2023/05/01 06:49:32;;;;;;;11.93;3.97;;;;;;;-146.27;87.81;83223.94;5034260;28;20033;-72
2023/05/01 06:51:57;;;;;;;9.98;4.18;;;;;;;-146.27;86.36;83276.19;5033865;28;20520;-71
2023/05/01 06:54:23;;;;;;;7.25;4.03;;;;;;;-146.27;86.83;83248.06;5027998;28;20064;-72
2023/05/01 06:56:48;;;;;;;14.32;3.80;;;;;;;-146.27;87.53;83229.97;5036792;28;20486;-72
2023/05/01 06:59:13;;;;;;;7.75;3.72;;;;;;;-146.27;87.11;83203.88;5030559;28;20392;-72
2023/05/01 07:01:39;;;;;;;8.25;3.88;;;;;;;-146.27;86.05;83217.94;5027574;28;20052;-71
2023/05/01 07:04:04;;;;;;;7.82;4.10;;;;;;;-146.27;88.92;83221.94;5029968;28;20025;-73
2023/05/01 07:06:31;;;;;;;5.88;3.70;;;;;;;-146.27;86.63;83256.09;5029349;28;20022;-73
2023/05/01 07:08:56;;;;;;;12.27;4.00;;;;;;;-146.27;85.94;83215.91;5031571;28;20148;-73
2023/05/01 07:11:21;;;;;;;8.15;3.78;;;;;;;-146.27;87.42;83179.75;5027880;28;20530;-71
2023/05/01 07:13:47;;;;;;;6.93;3.80;;;;;;;-146.27;86.94;83211.91;5029317;28;20048;-72
2023/05/01 07:16:12;;;;;;;10.63;4.00;;;;;;;-146.27;83.96;83223.94;5030789;28;20056;-71
2023/05/01 07:18:38;;;;;;;6.65;3.92;;;;;;;-146.27;86.58;83211.91;5029717;28;20044;-69
2023/05/01 07:21:04;;;;;;;8.05;4.35;;;;;;;-146.27;82.36;83191.81;5029060;28;20116;-71
2023/05/01 07:23:29;;;;;;;7.43;3.47;;;;;;;-146.27;80.94;83207.88;5025452;28;20164;-69
2023/05/01 07:25:55;;;;;;;9.93;3.78;;;;;;;-146.27;81.39;83183.78;5029062;28;20536;-69
2023/05/01 07:28:21;;;;;;;6.30;4.05;;;;;;;-146.27;81.91;83183.78;5031031;28;20033;-70
2023/05/01 07:30:47;;;;;;;7.93;3.88;;;;;;;-146.27;79.85;83229.97;5029880;28;20022;-69
2023/05/01 07:33:12;;;;;;;6.78;3.95;;;;;;;-146.27;84.99;83167.69;5028229;28;20022;-72
2023/05/01 07:35:37;;;;;;;8.95;3.85;;;;;;;-146.27;85.59;83161.66;5029849;28;20037;-73
2023/05/01 07:38:03;;;;;;;10.50;4.22;;;;;;;-146.27;85.42;83147.59;5029870;28;20452;-73
2023/05/01 07:40:28;;;;;;;7.95;4.43;;;;;;;-146.27;83.49;83103.41;5027953;28;20032;-72
2023/05/01 07:42:54;;;;;;;10.75;4.35;;;;;;;-146.27;82.88;83123.50;5029208;28;20484;-73
2023/05/01 07:45:19;;;;;;;6.53;4.03;;;;;;;-146.27;82.65;83099.38;5028936;28;20387;-72
2023/05/01 07:47:45;;;;;;;8.13;3.90;;;;;;;-146.27;82.34;83101.38;5027983;28;20465;-73
2023/05/01 07:50:11;;;;;;;7.35;4.38;;;;;;;-146.27;84.36;83087.31;5027867;28;20079;-73
2023/05/01 07:52:36;;;;;;;7.80;4.38;;;;;;;-146.27;82.39;83051.16;5029350;28;20136;-72
2023/05/01 07:55:03;;;;;;;9.00;3.90;;;;;;;-146.27;80.50;83063.22;5032931;28;20105;-72
2023/05/01 07:57:28;;;;;;;7.43;4.30;;;;;;;-146.27;82.79;83057.19;5029717;28;20704;-73
2023/05/01 07:59:58;;;;;;;7.93;4.18;;;;;;;-146.27;81.85;83004.94;5030721;28;20096;-72
2023/05/01 08:02:23;;;;;;;8.20;4.43;;;;;;;-146.27;81.11;83006.97;5029812;28;20477;-71
2023/05/01 08:04:48;;;;;;;16.63;4.75;;;;;;;-146.27;80.67;82998.94;5027642;28;20108;-70
2023/05/01 08:07:14;;;;;;;9.63;4.63;;;;;;;-146.27;79.83;82966.78;5029318;28;20204;-71
2023/05/01 08:09:39;;;;;;;8.07;5.15;;;;;;;-146.27;79.06;82914.53;5030230;28;20045;-72
2023/05/01 08:12:05;;;;;;;9.82;4.50;;;;;;;-146.27;78.00;82970.81;5029474;28;20046;-72
2023/05/01 08:14:30;;;;;;;11.40;4.20;;;;;;;-146.27;75.56;82950.72;5038332;28;20037;-71
2023/05/01 08:16:56;;;;;;;14.55;5.53;;;;;;;-146.27;79.28;82922.59;5030725;28;20021;-72
2023/05/01 08:19:22;;;;;;;8.70;5.10;;;;;;;-146.27;77.27;82962.75;5028678;28;20591;-72
2023/05/01 08:21:47;;;;;;;8.93;4.93;;;;;;;-146.27;77.21;82974.81;5031108;28;20062;-71
2023/05/01 08:24:13;;;;;;;13.27;5.22;;;;;;;-146.27;76.35;82982.84;5031185;28;20250;-71
2023/05/01 08:26:38;;;;;;;9.85;4.85;;;;;;;-146.27;75.34;82948.69;5028536;28;20116;-71
2023/05/01 08:29:04;;;;;;;25.00;5.22;;;;;;;-146.27;78.51;82944.69;5028500;28;20065;-72
2023/05/01 08:31:29;;;;;;;11.90;5.13;;;;;;;-146.27;78.50;82974.81;5029653;28;20472;-73
2023/05/01 08:33:55;;;;;;;6.40;4.30;;;;;;;-146.27;75.18;82950.72;5030295;28;20033;-72
2023/05/01 08:36:20;;;;;;;9.85;4.35;;;;;;;-146.27;74.97;82944.69;5029033;28;20025;-72
2023/05/01 08:38:46;;;;;;;9.00;4.32;;;;;;;-146.27;74.22;82970.81;5028948;28;20519;-71
2023/05/01 08:41:20;;;;;;;9.52;4.75;;;;;;;-146.27;74.74;82960.75;5026678;28;20086;-72
2023/05/01 08:43:45;;;;;;;6.93;4.63;;;;;;;-146.27;73.32;82914.53;5026946;28;20410;-72
2023/05/01 08:46:14;;;;;;;12.32;4.90;;;;;;;-146.27;72.35;82930.63;5026513;28;20030;-72
2023/05/01 08:48:41;;;;;;;13.13;4.88;;;;;;;-146.27;72.76;82922.59;5026756;28;20132;-72
2023/05/01 08:51:10;;;;;;;9.95;4.18;;;;;;;-146.27;73.74;82882.41;5028446;28;20035;-72
2023/05/01 08:53:36;;;;;;;7.75;4.38;;;;;;;-146.27;76.05;82928.59;5028776;28;20087;-72
2023/05/01 08:56:05;;;;;;;11.02;4.60;;;;;;;-146.27;80.15;82918.56;5029903;28;20029;-71
2023/05/01 08:58:33;;;;;;;10.82;5.35;;;;;;;-146.27;80.68;82930.63;5029959;28;20036;-72
2023/05/01 09:01:00;;;;;;;8.27;5.18;;;;;;;-146.27;81.79;82954.72;5028945;28;20025;-72
2023/05/01 09:03:27;;;;;;;13.55;5.20;;;;;;;-146.27;84.99;82960.75;5028432;28;20025;-73
2023/05/01 09:05:53;;;;;;;8.63;5.15;;;;;;;-146.27;86.48;82974.81;5029087;28;20111;-72
2023/05/01 09:08:19;;;;;;;10.93;4.85;;;;;;;-146.27;86.37;82946.69;5030060;28;20516;-72
2023/05/01 09:10:48;;;;;;;10.88;6.22;;;;;;;-146.27;85.64;82960.75;5025182;28;20036;-72
2023/05/01 09:13:13;;;;;;;8.70;4.88;;;;;;;-146.27;83.66;82946.69;5020597;28;20026;-73
2023/05/01 09:15:39;;;;;;;18.35;5.93;;;;;;;-146.27;82.88;82962.75;5027510;28;20037;-73
2023/05/01 09:18:05;;;;;;;9.40;5.35;;;;;;;-146.27;82.00;82996.91;5028707;28;20021;-74
2023/05/01 09:20:31;;;;;;;7.63;4.55;;;;;;;-146.27;82.93;82990.88;5027921;28;20123;-72
2023/05/01 09:23:00;;;;;;;10.13;6.53;;;;;;;-146.27;85.13;83035.09;5028175;28;20096;-75
2023/05/01 09:25:26;;;;;;;12.40;6.22;;;;;;;-146.27;86.22;83043.13;5028562;28;20025;-74
2023/05/01 09:27:52;;;;;;;9.55;5.63;;;;;;;-146.27;87.58;83006.97;5026434;28;20080;-73
2023/05/01 09:30:30;;;;;;;13.65;5.93;;;;;;;-146.27;87.75;83027.06;5031579;28;20025;-74
2023/05/01 09:33:11;;;;;;;10.23;5.95;;;;;;;-146.27;88.85;83027.06;5032780;28;20033;-72
2023/05/01 09:35:53;;;;;;;11.02;6.20;;;;;;;-146.27;90.68;83029.06;5048439;28;20123;-73
2023/05/01 09:38:26;;;;;;;11.43;6.82;;;;;;;-146.27;90.99;83065.22;5038844;28;20029;-72
2023/05/01 09:40:55;;;;;;;9.05;6.72;;;;;;;-146.27;92.98;83091.34;5032223;28;20169;-73
2023/05/01 09:43:28;;;;;;;18.75;7.40;;;;;;;-146.27;94.78;83041.13;5029830;28;20021;-72
2023/05/01 09:46:06;;;;;;;15.98;7.53;;;;;;;-146.27;94.19;83075.28;5031227;28;20453;-72
2023/05/01 09:48:32;;;;;;;12.18;7.30;;;;;;;-146.27;95.21;83149.63;5030310;28;20055;-72
2023/05/01 09:50:58;;;;;;;12.98;6.70;;;;;;;-146.27;95.18;83107.41;5030870;28;20036;-74
2023/05/01 09:53:37;;;;;;;14.38;7.30;;;;;;;-146.27;96.56;83113.44;5030584;28;20025;-74
2023/05/01 09:56:03;;;;;;;15.18;7.82;;;;;;;-146.27;97.23;83197.84;5031317;28;20037;-70
2023/05/01 09:58:29;;;;;;;15.38;8.00;;;;;;;-146.27;99.29;83211.91;5033030;28;20035;-70
2023/05/01 10:00:54;;;;;;;11.88;7.68;;;;;;;-146.27;100.00;83215.91;5046707;28;20036;-69
2023/05/01 10:03:20;;;;;;;13.45;7.50;;;;;;;-146.27;100.00;83209.88;5043385;28;20074;-69
2023/05/01 10:05:45;;;;;;;13.18;7.57;;;;;;;-146.27;100.00;83240.03;5033057;28;20152;-71
2023/05/01 10:08:13;;;;;;;14.48;7.97;;;;;;;-146.27;100.00;83246.06;5044186;28;20127;-69
2023/05/01 10:10:40;;;;;;;13.05;8.25;;;;;;;-146.27;100.00;83262.13;5053218;28;20036;-70
2023/05/01 10:13:15;;;;;;;21.42;8.48;;;;;;;-146.27;100.00;83236.00;5053304;28;20029;-69
2023/05/01 10:15:40;;;;;;;14.68;8.38;;;;;;;-146.27;100.00;83252.09;5033972;28;20393;-69
2023/05/01 10:18:12;;;;;;;14.65;7.72;;;;;;;-146.27;100.00;83304.31;5038582;28;20036;-69
2023/05/01 10:20:37;;;;;;;16.23;8.95;;;;;;;-146.27;100.00;83292.28;5039468;28;20032;-70
2023/05/01 10:23:03;;;;;;;19.98;8.23;;;;;;;-146.27;100.00;83232.00;5039462;28;20036;-70
2023/05/01 10:25:30;;;;;;;12.80;7.88;;;;;;;-146.27;100.00;83254.09;5032813;28;20501;-70
2023/05/01 10:27:56;;;;;;;13.60;8.07;;;;;;;-146.27;100.00;83219.94;5033286;28;20272;-69
2023/05/01 10:30:21;;;;;;;23.80;8.88;;;;;;;-146.27;100.00;83260.13;5033219;28;20049;-70
2023/05/01 10:32:47;;;;;;;17.15;9.50;;;;;;;-146.27;100.00;83197.84;5031714;28;20028;-70
2023/05/01 10:35:28;;;;;;;15.73;8.55;;;;;;;-146.27;100.00;83211.91;5040860;28;20029;-68
2023/05/01 10:38:03;;;;;;;18.27;8.93;;;;;;;-146.27;100.00;83183.78;5051900;28;20021;-69
2023/05/01 10:40:37;;;;;;;14.50;8.43;;;;;;;-146.27;100.00;83227.97;5050376;28;20585;-68
2023/05/01 10:43:30;;;;;;;11.48;7.35;;;;;;;-146.27;100.00;83229.97;5052766;28;20032;-68
2023/05/01 10:46:08;;;;;;;12.32;8.95;;;;;;;-146.27;100.00;83240.03;5053195;28;20048;-70
2023/05/01 10:48:36;;;;;;;13.15;7.20;;;;;;;-146.27;100.00;83236.00;5034305;28;20033;-69
2023/05/01 10:51:21;;;;;;;21.02;9.00;;;;;;;-146.27;100.00;83217.94;5030662;28;20519;-71
2023/05/01 10:54:11;;;;;;;20.27;9.43;;;;;;;-146.27;100.00;83227.97;5031660;28;20025;-70
2023/05/01 10:56:36;;;;;;;16.27;8.60;;;;;;;-146.27;100.00;83207.88;5032903;28;20036;-73
2023/05/01 10:59:03;;;;;;;13.40;7.88;;;;;;;-146.27;100.00;83191.81;5031288;28;20104;-70
2023/05/01 11:01:36;;;;;;;17.83;8.52;;;;;;;-146.27;100.00;83197.84;5029680;28;20031;-69
2023/05/01 11:04:28;;;;;;;17.77;9.05;;;;;;;-146.27;100.00;83183.78;5031553;28;20034;-70
2023/05/01 11:06:57;;;;;;;15.20;9.10;;;;;;;-146.27;100.00;83183.78;5024621;28;20147;-71
2023/05/01 11:09:39;;;;;;;16.73;8.40;;;;;;;-146.27;100.00;83135.53;5022704;28;20033;-70
2023/05/01 11:12:05;;;;;;;12.57;7.95;;;;;;;-146.27;100.00;83145.59;5030238;28;20073;-69
2023/05/01 11:14:52;;;;;;;16.10;8.50;;;;;;;-146.27;100.00;83095.38;5027329;28;20033;-71
2023/05/01 11:17:42;;;;;;;12.88;7.85;;;;;;;-146.27;100.00;83083.31;5028306;28;20164;-69